KCXE

Chase City Municipal Airport

Chase City, Virginia, USA
METAR KCXE 261315Z AUTO 20003KT 10SM OVC011 23/23 A2998 RMK AO1 T02330233
Observed Flight Rules
May-26 @ 13:15 UTC (18 minutes ago) Marginal Visual Flight Rules
Wind Visibility Clouds
200° at 3 knots 10 miles
  • Overcast at 1,100' AGL
Temperatures Readings
Current 23°C / 73°F
Dewpoint 23°C / 73°F
Humidity 100%
Altimeter 29.98" Hg
Pressure 1015 hPa
Elevation 153
METAR KCXE 261315Z AUTO 20003KT 10SM OVC011 23/23 A2998 RMK AO1 T02330233
Observed Flight Rules
May-26 @ 13:15 UTC
(18 minutes ago)
MVFR
Wind Visibility
200° at 3 knots 10 miles
Clouds
  • Overcast at 1,100' AGL
Temperature Dewpoint
23°C / 73°F 23°C / 73°F
Humidity Altimeter Pressure
100% 29.98" Hg 1015 hPa